Time;durP1;ratioP1;P1;durP2;ratioP2;P2;SDS_P1;SDS_P2;PMS_P1;PMS_P2;Temp;Humidity;BMP_temperature;BMP_pressure;BME280_temperature;BME280_humidity;BME280_pressure;Samples;Min_cycle;Max_cycle;Signal;HPM_P1;HPM_P2
2021/12/10 00:00:13;;;;;;;3.85;1.80;;;1.00;99.90;;;;;;5066023;28;20033;-77
2021/12/10 00:02:45;;;;;;;4.57;2.20;;;0.70;99.90;;;;;;5056001;28;20115;-77
2021/12/10 00:05:11;;;;;;;8.52;3.10;;;0.60;99.90;;;;;;5062256;28;20021;-76
2021/12/10 00:07:38;;;;;;;9.27;3.75;;;0.60;99.90;;;;;;5065463;28;20111;-76
2021/12/10 00:10:08;;;;;;;7.18;4.18;;;0.60;99.90;;;;;;5074206;28;20372;-77
2021/12/10 00:12:38;;;;;;;2.55;1.17;;;0.50;99.90;;;;;;5058038;28;20094;-76
2021/12/10 00:15:07;;;;;;;2.28;1.15;;;0.30;99.90;;;;;;5068419;28;20052;-76
2021/12/10 00:17:33;;;;;;;6.65;3.00;;;0.40;99.90;;;;;;5053797;28;20033;-76
2021/12/10 00:20:01;;;;;;;7.53;3.83;;;0.70;99.90;;;;;;5069476;28;20032;-76
2021/12/10 00:22:38;;;;;;;4.72;1.75;;;0.70;99.90;;;;;;5063092;28;20471;-76
2021/12/10 00:25:07;;;;;;;4.82;2.40;;;0.60;99.90;;;;;;5053954;28;20506;-76
2021/12/10 00:27:33;;;;;;;6.25;3.40;;;0.50;99.90;;;;;;5065091;28;20395;-76
2021/12/10 00:30:18;;;;;;;7.18;3.33;;;0.70;99.90;;;;;;5073387;28;20024;-76
2021/12/10 00:33:00;;;;;;;5.03;2.25;;;0.60;99.90;;;;;;5071223;28;20471;-76
2021/12/10 00:35:28;;;;;;;8.55;4.80;;;0.40;99.90;;;;;;5073571;28;20033;-76
2021/12/10 00:37:54;;;;;;;4.60;1.70;;;0.40;99.90;;;;;;5061331;28;20021;-76
2021/12/10 00:40:22;;;;;;;5.83;1.60;;;0.50;99.90;;;;;;5053519;28;20079;-76
2021/12/10 00:42:48;;;;;;;3.17;1.58;;;0.60;99.90;;;;;;5063566;28;20482;-77
2021/12/10 00:45:16;;;;;;;5.53;2.33;;;0.50;99.90;;;;;;5073495;28;20059;-76
2021/12/10 00:47:44;;;;;;;6.40;2.55;;;0.50;99.90;;;;;;5066656;28;20041;-76
2021/12/10 00:50:15;;;;;;;6.55;2.95;;;0.40;99.90;;;;;;5071416;28;20116;-76
2021/12/10 00:52:42;;;;;;;7.37;2.70;;;0.30;99.90;;;;;;5062027;28;20036;-77
2021/12/10 00:55:09;;;;;;;15.50;8.35;;;0.20;99.90;;;;;;5050255;28;20119;-76
2021/12/10 00:57:36;;;;;;;6.55;2.63;;;0.20;99.90;;;;;;5061906;28;20482;-76
2021/12/10 01:00:05;;;;;;;2.25;1.20;;;0.00;99.90;;;;;;5071165;28;20090;-77
2021/12/10 01:02:31;;;;;;;3.50;1.58;;;0.10;99.90;;;;;;5064549;28;20120;-77
2021/12/10 01:04:59;;;;;;;4.50;1.42;;;0.10;99.90;;;;;;5070974;28;20103;-77
2021/12/10 01:07:29;;;;;;;24.75;13.48;;;0.10;99.90;;;;;;5063995;28;20729;-76
2021/12/10 01:09:58;;;;;;;4.65;2.55;;;0.20;99.90;;;;;;5072869;28;20021;-76
2021/12/10 01:12:32;;;;;;;3.17;1.50;;;0.30;99.90;;;;;;5070467;28;20025;-77
2021/12/10 01:28:46;;;;;;;2.63;1.10;;;-0.20;99.90;;;;;;5072282;28;20389;-76
2021/12/10 01:31:12;;;;;;;4.47;1.37;;;0.30;99.90;;;;;;5059089;28;20036;-76
2021/12/10 01:33:40;;;;;;;3.10;1.30;;;0.40;99.90;;;;;;5053155;28;20024;-77
2021/12/10 01:36:08;;;;;;;3.47;1.30;;;0.40;99.90;;;;;;5053520;28;20044;-76
2021/12/10 01:38:40;;;;;;;2.58;1.20;;;0.40;99.90;;;;;;5064630;28;20082;-76
2021/12/10 01:41:09;;;;;;;1.40;0.63;;;0.40;99.90;;;;;;5063838;28;20033;-76
2021/12/10 01:43:39;;;;;;;3.17;0.82;;;0.10;99.90;;;;;;5052429;28;20055;-76
2021/12/10 01:46:11;;;;;;;4.60;1.30;;;0.20;99.90;;;;;;5048989;28;20033;-76
2021/12/10 01:48:44;;;;;;;2.50;0.90;;;0.20;99.90;;;;;;5072441;28;20038;-76
2021/12/10 01:51:12;;;;;;;2.75;1.00;;;0.10;99.90;;;;;;5055036;28;20021;-76
2021/12/10 01:53:41;;;;;;;4.85;2.20;;;0.00;99.90;;;;;;5052164;28;20029;-76
2021/12/10 01:56:17;;;;;;;3.22;1.40;;;-0.20;99.90;;;;;;5067599;28;20045;-77
2021/12/10 01:58:45;;;;;;;2.30;1.15;;;-0.10;99.90;;;;;;5072394;28;20046;-76
2021/12/10 02:01:16;;;;;;;2.40;0.82;;;-0.20;99.90;;;;;;5055393;28;20025;-76
2021/12/10 02:03:42;;;;;;;2.10;0.90;;;-0.10;99.90;;;;;;5052124;28;20053;-76
2021/12/10 02:06:09;;;;;;;2.27;1.27;;;0.10;99.90;;;;;;5057224;28;20548;-76
2021/12/10 02:08:36;;;;;;;2.23;1.20;;;0.00;99.90;;;;;;5055626;28;20032;-76
2021/12/10 02:11:02;;;;;;;2.67;1.07;;;0.00;99.80;;;;;;5070519;28;20150;-76
2021/12/10 02:13:28;;;;;;;1.97;0.70;;;-0.30;99.90;;;;;;5060718;28;20029;-76
2021/12/10 02:15:54;;;;;;;1.90;0.70;;;-0.30;99.90;;;;;;5059348;28;20394;-76
2021/12/10 02:18:21;;;;;;;0.80;0.50;;;-0.10;99.90;;;;;;5062200;28;20025;-76
2021/12/10 02:20:48;;;;;;;1.38;0.63;;;-0.20;99.90;;;;;;5049882;28;20040;-76
2021/12/10 02:23:14;;;;;;;1.00;0.60;;;-0.40;99.90;;;;;;5055457;28;20024;-76
2021/12/10 02:25:40;;;;;;;3.07;1.00;;;-0.20;99.90;;;;;;5068922;28;20031;-76
2021/12/10 02:28:09;;;;;;;1.83;0.80;;;-0.30;99.90;;;;;;5066851;28;20108;-76
2021/12/10 02:30:36;;;;;;;0.95;0.55;;;-0.30;99.90;;;;;;5064446;28;20029;-76
2021/12/10 02:33:03;;;;;;;3.10;1.43;;;-0.50;99.90;;;;;;5053029;28;20029;-76
2021/12/10 02:35:29;;;;;;;2.30;0.90;;;-0.50;99.90;;;;;;5067884;28;20075;-76
2021/12/10 02:37:55;;;;;;;3.30;1.10;;;-0.30;99.90;;;;;;5067121;28;20029;-76
2021/12/10 02:40:23;;;;;;;1.07;0.57;;;-0.40;99.90;;;;;;5060531;28;20033;-76
2021/12/10 02:42:51;;;;;;;1.13;0.50;;;-0.30;99.90;;;;;;5049631;28;20025;-76
2021/12/10 02:45:20;;;;;;;1.20;0.53;;;-0.10;99.50;;;;;;5069128;28;20045;-76
2021/12/10 02:47:48;;;;;;;1.50;0.87;;;-0.10;99.40;;;;;;5069831;28;20037;-76
2021/12/10 02:50:17;;;;;;;1.17;0.57;;;-0.20;99.50;;;;;;5070721;28;20532;-76
2021/12/10 02:52:43;;;;;;;1.33;0.30;;;-0.20;99.40;;;;;;5065945;28;20104;-76
2021/12/10 02:55:10;;;;;;;1.87;0.67;;;-0.30;99.60;;;;;;5065967;28;20025;-76
2021/12/10 02:57:38;;;;;;;1.37;0.50;;;-0.20;99.40;;;;;;5063605;28;20025;-76
2021/12/10 03:00:08;;;;;;;3.23;1.93;;;0.00;99.10;;;;;;5070103;28;20078;-76
2021/12/10 03:02:33;;;;;;;6.50;2.20;;;-0.30;99.80;;;;;;5059628;28;20170;-76
2021/12/10 03:04:59;;;;;;;3.80;1.67;;;-0.40;99.90;;;;;;5052426;28;20104;-76
2021/12/10 03:07:25;;;;;;;4.25;2.03;;;-0.80;99.90;;;;;;5060689;28;20035;-76
2021/12/10 03:09:53;;;;;;;1.83;0.73;;;-1.10;99.90;;;;;;5070489;28;20024;-76
2021/12/10 03:12:21;;;;;;;0.97;0.50;;;-1.10;99.90;;;;;;5062994;28;20479;-77
2021/12/10 03:14:51;;;;;;;1.13;0.60;;;-1.00;99.90;;;;;;5051533;28;20029;-76
2021/12/10 03:17:25;;;;;;;1.65;0.52;;;-1.10;99.90;;;;;;5058243;28;20020;-76
2021/12/10 03:19:52;;;;;;;0.75;0.40;;;-1.00;99.90;;;;;;5069778;28;20452;-76
2021/12/10 03:22:18;;;;;;;1.90;0.50;;;-0.80;99.90;;;;;;5061402;28;20039;-77
2021/12/10 03:24:44;;;;;;;0.83;0.40;;;-0.80;99.90;;;;;;5071829;28;20040;-76
2021/12/10 03:27:11;;;;;;;1.03;0.57;;;-0.90;99.90;;;;;;5058846;28;20549;-76
2021/12/10 03:29:41;;;;;;;1.13;0.67;;;-0.60;99.90;;;;;;5071840;28;20021;-76
2021/12/10 03:32:12;;;;;;;1.77;0.70;;;-0.30;99.50;;;;;;5055065;28;20043;-76
2021/12/10 03:34:39;;;;;;;2.90;1.10;;;-0.40;99.60;;;;;;5053506;28;20017;-76
2021/12/10 03:37:06;;;;;;;3.13;1.40;;;-0.60;99.90;;;;;;5072822;28;20027;-76
2021/12/10 03:39:33;;;;;;;3.27;0.80;;;-0.70;99.90;;;;;;5072760;28;20029;-76
2021/12/10 03:42:00;;;;;;;1.17;0.40;;;-0.80;99.90;;;;;;5053156;28;20033;-76
2021/12/10 03:44:27;;;;;;;1.60;0.77;;;-0.80;99.90;;;;;;5058778;28;20033;-76
2021/12/10 03:46:54;;;;;;;1.17;0.60;;;-0.80;99.90;;;;;;5072541;28;20089;-76
2021/12/10 03:49:20;;;;;;;0.33;0.23;;;-0.90;99.90;;;;;;5057946;28;20025;-76
2021/12/10 03:51:46;;;;;;;1.43;0.50;;;-1.00;99.90;;;;;;5054772;28;20057;-76
2021/12/10 03:54:16;;;;;;;1.38;0.40;;;-0.90;99.90;;;;;;5068169;28;20032;-76
2021/12/10 03:56:44;;;;;;;24.00;11.37;;;-0.90;99.90;;;;;;5074386;28;20031;-76
2021/12/10 03:59:13;;;;;;;5.15;1.65;;;-0.70;99.90;;;;;;5061084;28;20074;-76
2021/12/10 04:01:43;;;;;;;4.23;1.40;;;-1.00;99.90;;;;;;5065607;28;20025;-75
2021/12/10 04:04:13;;;;;;;0.75;0.40;;;-0.90;99.90;;;;;;5065587;28;20146;-75
2021/12/10 04:06:39;;;;;;;1.67;0.70;;;-0.90;99.90;;;;;;5060124;28;20033;-75
2021/12/10 04:09:06;;;;;;;1.03;0.50;;;-1.40;99.90;;;;;;5050230;28;20044;-75
2021/12/10 04:11:33;;;;;;;1.50;0.50;;;-1.50;99.90;;;;;;5051417;28;20040;-75
2021/12/10 04:13:59;;;;;;;1.77;0.50;;;-1.50;99.90;;;;;;5066978;28;20123;-75
2021/12/10 04:16:28;;;;;;;1.87;0.60;;;-1.40;99.90;;;;;;5052473;28;20055;-76
2021/12/10 04:18:56;;;;;;;1.10;0.40;;;-1.30;99.90;;;;;;5049514;28;20024;-75
2021/12/10 04:21:23;;;;;;;1.37;0.40;;;-1.20;99.90;;;;;;5046887;28;20028;-75
2021/12/10 04:23:50;;;;;;;0.97;0.43;;;-1.20;99.90;;;;;;5034265;28;20441;-75
2021/12/10 04:26:18;;;;;;;1.40;0.50;;;-1.40;99.90;;;;;;5067314;28;20520;-75
2021/12/10 04:28:45;;;;;;;2.50;0.80;;;-1.50;99.90;;;;;;5068257;28;20054;-75
2021/12/10 04:31:12;;;;;;;2.03;0.70;;;-1.60;99.90;;;;;;5067503;28;20686;-75
2021/12/10 04:33:38;;;;;;;2.80;0.60;;;-1.60;99.90;;;;;;5068191;28;20035;-75
2021/12/10 04:36:05;;;;;;;1.47;0.73;;;-1.80;99.90;;;;;;5049557;28;20502;-76
2021/12/10 04:38:33;;;;;;;2.23;0.67;;;-1.80;99.90;;;;;;5050828;28;20040;-75
2021/12/10 04:41:03;;;;;;;2.20;0.53;;;-1.50;99.90;;;;;;5058000;28;20082;-76
2021/12/10 04:43:31;;;;;;;2.37;0.90;;;-1.30;99.90;;;;;;5051744;28;20044;-75
2021/12/10 04:45:59;;;;;;;1.63;0.83;;;-1.10;99.90;;;;;;5051311;28;20123;-75
2021/12/10 04:48:26;;;;;;;2.60;1.10;;;-1.20;99.90;;;;;;5063354;28;20036;-75
2021/12/10 04:50:52;;;;;;;2.23;0.90;;;-1.30;99.90;;;;;;5061953;28;20021;-75
2021/12/10 04:53:18;;;;;;;2.07;1.03;;;-1.20;99.90;;;;;;5048736;28;20029;-75
2021/12/10 04:55:44;;;;;;;2.63;0.97;;;-1.20;99.90;;;;;;5050048;28;20487;-75
2021/12/10 04:58:11;;;;;;;0.90;0.50;;;-1.30;99.90;;;;;;5057316;28;20410;-75
2021/12/10 05:00:45;;;;;;;0.97;0.50;;;-1.30;99.90;;;;;;5063120;28;20040;-76
2021/12/10 05:03:12;;;;;;;1.70;0.70;;;-1.30;99.90;;;;;;5065762;28;20101;-75
2021/12/10 05:05:39;;;;;;;0.90;0.50;;;-1.30;99.90;;;;;;5055841;28;20367;-75
2021/12/10 05:08:06;;;;;;;2.50;1.00;;;-1.40;99.90;;;;;;5065988;28;20028;-75
2021/12/10 05:10:33;;;;;;;3.03;1.27;;;-1.50;99.90;;;;;;5063017;28;20097;-75
2021/12/10 05:12:59;;;;;;;1.40;0.90;;;-1.50;99.90;;;;;;5065673;28;20035;-75
2021/12/10 05:15:30;;;;;;;2.70;0.83;;;-1.50;99.90;;;;;;5049170;28;20076;-76
2021/12/10 05:17:56;;;;;;;1.53;0.77;;;-1.60;99.90;;;;;;5058182;28;20033;-75
2021/12/10 05:20:36;;;;;;;2.10;1.20;;;-1.40;99.90;;;;;;5045289;28;20025;-75
2021/12/10 05:23:02;;;;;;;2.23;0.70;;;-1.40;99.90;;;;;;5059170;28;20108;-75
2021/12/10 05:25:29;;;;;;;1.20;0.80;;;-1.40;99.90;;;;;;5052394;28;20031;-75
2021/12/10 05:27:56;;;;;;;1.47;0.60;;;-1.70;99.90;;;;;;5052907;28;20115;-75
2021/12/10 05:30:27;;;;;;;1.13;0.57;;;-1.70;99.90;;;;;;5065463;28;20033;-75
2021/12/10 05:32:53;;;;;;;2.07;0.93;;;-1.70;99.90;;;;;;5062624;28;20028;-75
2021/12/10 05:35:20;;;;;;;2.17;0.70;;;-1.50;99.90;;;;;;5045623;28;20040;-75
2021/12/10 05:37:46;;;;;;;3.30;1.03;;;-1.60;99.90;;;;;;5051874;28;20483;-75
2021/12/10 05:40:14;;;;;;;1.23;0.60;;;-1.60;99.90;;;;;;5055609;28;20032;-75
2021/12/10 05:42:45;;;;;;;0.87;0.40;;;-1.60;99.90;;;;;;5045344;28;20029;-75
2021/12/10 05:45:12;;;;;;;2.67;0.70;;;-1.40;99.90;;;;;;5063511;28;20059;-75
2021/12/10 05:47:38;;;;;;;2.10;0.70;;;-1.40;99.90;;;;;;5060709;28;20533;-76
2021/12/10 05:50:07;;;;;;;1.77;0.80;;;-1.20;99.90;;;;;;5043268;28;20163;-75
2021/12/10 05:52:33;;;;;;;2.13;0.90;;;-1.20;99.90;;;;;;5044637;28;20541;-75
2021/12/10 05:54:59;;;;;;;3.07;0.90;;;-1.40;99.90;;;;;;5064731;28;20025;-75
2021/12/10 05:57:25;;;;;;;1.77;0.80;;;-1.40;99.90;;;;;;5064040;28;20027;-75
2021/12/10 05:59:50;;;;;;;4.17;0.73;;;-1.40;99.90;;;;;;5048635;28;20041;-75
2021/12/10 06:02:16;;;;;;;1.37;0.70;;;-1.30;99.90;;;;;;5064834;28;20124;-75
2021/12/10 06:04:42;;;;;;;2.07;0.90;;;-1.50;99.90;;;;;;5045958;28;20029;-75
2021/12/10 06:07:08;;;;;;;2.53;0.80;;;-1.60;99.90;;;;;;5044439;28;20024;-75
2021/12/10 06:09:34;;;;;;;2.73;1.07;;;-1.70;99.90;;;;;;5053480;28;20510;-75
2021/12/10 06:12:03;;;;;;;2.27;0.90;;;-1.70;99.90;;;;;;5045020;28;20033;-75
2021/12/10 06:14:29;;;;;;;2.03;1.10;;;-1.70;99.90;;;;;;5055019;28;20074;-75
2021/12/10 06:16:55;;;;;;;2.87;1.00;;;-1.70;99.90;;;;;;5044481;28;20515;-75
2021/12/10 06:19:22;;;;;;;5.33;0.80;;;-1.70;99.90;;;;;;5045451;28;20112;-75
2021/12/10 06:21:48;;;;;;;2.97;0.77;;;-1.70;99.90;;;;;;5044758;28;20082;-75
2021/12/10 06:24:14;;;;;;;0.90;0.60;;;-1.60;99.90;;;;;;5053778;28;20371;-75
2021/12/10 06:26:40;;;;;;;1.05;0.40;;;-1.50;99.90;;;;;;5046349;28;20457;-75
2021/12/10 06:29:06;;;;;;;4.33;1.20;;;-1.70;99.90;;;;;;5049160;28;20086;-75
2021/12/10 06:31:33;;;;;;;2.73;1.10;;;-1.80;99.90;;;;;;5060696;28;20034;-75
2021/12/10 06:34:00;;;;;;;3.73;1.83;;;-1.90;99.90;;;;;;5045376;28;20079;-75
2021/12/10 06:36:27;;;;;;;2.70;1.37;;;-1.80;99.90;;;;;;5063576;28;20025;-75
2021/12/10 06:38:54;;;;;;;3.00;1.03;;;-2.10;99.90;;;;;;5045320;28;20417;-75
2021/12/10 06:41:20;;;;;;;4.23;1.40;;;-2.00;99.90;;;;;;5060236;28;20025;-74
2021/12/10 06:43:47;;;;;;;4.33;1.30;;;-2.00;99.90;;;;;;5053776;28;20063;-76
2021/12/10 06:46:13;;;;;;;1.97;0.80;;;-1.70;99.90;;;;;;5046637;28;20061;-75
2021/12/10 06:48:39;;;;;;;1.60;0.80;;;-1.60;99.90;;;;;;5044309;28;20936;-75
2021/12/10 06:51:10;;;;;;;2.27;0.83;;;-1.70;99.90;;;;;;5050982;28;20035;-75
2021/12/10 06:53:39;;;;;;;2.13;0.70;;;-1.60;99.90;;;;;;5057112;28;20036;-75
2021/12/10 06:56:06;;;;;;;0.83;0.40;;;-1.70;99.90;;;;;;5051071;28;20126;-75
2021/12/10 06:58:33;;;;;;;2.23;0.90;;;-1.80;99.90;;;;;;5051038;28;20124;-75
2021/12/10 07:01:06;;;;;;;1.30;0.47;;;-1.60;99.90;;;;;;5053634;28;20047;-75
2021/12/10 07:03:34;;;;;;;1.60;0.80;;;-1.50;99.90;;;;;;5070926;28;20024;-76
2021/12/10 07:06:01;;;;;;;5.23;2.03;;;-1.30;99.90;;;;;;5070835;28;20031;-75
2021/12/10 07:08:29;;;;;;;3.90;1.73;;;-1.20;99.90;;;;;;5070592;28;20032;-75
2021/12/10 07:10:57;;;;;;;76.47;30.10;;;-1.20;99.90;;;;;;5071021;28;20021;-76
2021/12/10 07:13:23;;;;;;;19.87;9.50;;;-1.20;99.90;;;;;;5050976;28;20021;-75
2021/12/10 07:15:50;;;;;;;4.30;2.10;;;-1.30;99.90;;;;;;5050673;28;20041;-75
2021/12/10 07:18:19;;;;;;;4.07;1.53;;;-1.40;99.90;;;;;;5050435;28;20482;-75
2021/12/10 07:20:46;;;;;;;2.35;1.27;;;-1.50;99.90;;;;;;5050930;28;20031;-75
2021/12/10 07:23:12;;;;;;;2.43;1.30;;;-1.50;99.90;;;;;;5065281;28;20033;-75
2021/12/10 07:25:38;;;;;;;2.17;0.90;;;-1.40;99.90;;;;;;5070526;28;20028;-75
2021/12/10 07:28:05;;;;;;;2.43;1.13;;;-1.30;99.90;;;;;;5070549;28;20031;-75
2021/12/10 07:30:31;;;;;;;3.50;1.30;;;-1.10;99.90;;;;;;5070425;28;20024;-75
2021/12/10 07:32:58;;;;;;;3.87;1.63;;;-1.10;99.90;;;;;;5063540;28;20017;-75
2021/12/10 07:35:24;;;;;;;2.97;1.47;;;-1.00;99.90;;;;;;5070026;28;20094;-75
2021/12/10 07:37:50;;;;;;;5.33;1.47;;;-1.00;99.90;;;;;;5068991;28;20024;-75
2021/12/10 07:40:24;;;;;;;2.08;1.20;;;-1.00;99.90;;;;;;5068402;28;20103;-75
2021/12/10 07:42:50;;;;;;;14.33;7.90;;;-0.90;99.90;;;;;;5068602;28;20054;-75
2021/12/10 07:45:17;;;;;;;5.75;2.78;;;-0.80;99.90;;;;;;5067181;28;20135;-75
2021/12/10 07:47:44;;;;;;;6.55;2.75;;;-0.80;99.90;;;;;;5070388;28;20036;-76
2021/12/10 07:50:17;;;;;;;11.33;5.83;;;-0.80;99.90;;;;;;5071695;28;20032;-77
2021/12/10 07:52:45;;;;;;;12.13;5.10;;;-0.90;99.90;;;;;;5068094;28;20617;-76
2021/12/10 07:55:15;;;;;;;9.10;3.92;;;-1.00;99.90;;;;;;5051854;28;20731;-77
2021/12/10 07:57:42;;;;;;;11.03;4.40;;;-1.00;99.90;;;;;;5044810;28;20033;-76
2021/12/10 08:00:12;;;;;;;9.80;4.57;;;-1.00;99.90;;;;;;5045661;28;20479;-76
2021/12/10 08:02:38;;;;;;;11.18;5.63;;;-0.90;99.90;;;;;;5044368;28;20122;-76
2021/12/10 08:05:05;;;;;;;17.80;8.57;;;-0.80;99.90;;;;;;5044169;28;20478;-76
2021/12/10 08:07:31;;;;;;;5.80;2.83;;;-0.70;99.90;;;;;;5045017;28;20033;-76
2021/12/10 08:09:56;;;;;;;4.93;2.60;;;-0.80;99.90;;;;;;5057309;28;20028;-77
2021/12/10 08:12:22;;;;;;;12.27;4.05;;;-0.80;99.90;;;;;;5065558;28;20060;-76
2021/12/10 08:14:52;;;;;;;8.73;3.83;;;-0.70;99.90;;;;;;5064972;28;20024;-76
2021/12/10 08:17:23;;;;;;;8.02;3.92;;;-0.60;99.90;;;;;;5065001;28;20024;-76
2021/12/10 08:19:51;;;;;;;9.48;3.95;;;-0.50;99.90;;;;;;5057671;28;20036;-76
2021/12/10 08:22:17;;;;;;;9.38;3.72;;;-0.60;99.90;;;;;;5045023;28;20088;-76
2021/12/10 08:24:43;;;;;;;6.18;3.20;;;-0.50;99.90;;;;;;5045171;28;20032;-77
2021/12/10 08:27:10;;;;;;;5.90;2.50;;;-0.50;99.90;;;;;;5045138;28;20375;-76
2021/12/10 08:29:36;;;;;;;11.93;5.45;;;-0.50;99.90;;;;;;5044145;28;20675;-76
2021/12/10 08:32:02;;;;;;;12.80;6.30;;;-0.30;99.90;;;;;;5061260;28;20099;-75
2021/12/10 08:34:29;;;;;;;8.93;4.90;;;-0.20;99.90;;;;;;5063257;28;20029;-74
2021/12/10 08:36:56;;;;;;;10.60;3.55;;;-0.30;99.90;;;;;;5068216;28;20036;-76
2021/12/10 08:39:22;;;;;;;7.35;2.65;;;-0.40;99.90;;;;;;5054561;28;20094;-76
2021/12/10 08:41:48;;;;;;;14.93;7.32;;;-0.20;99.90;;;;;;5054393;28;20033;-76
2021/12/10 08:44:14;;;;;;;13.23;5.05;;;-0.10;99.90;;;;;;5063698;28;20028;-76
2021/12/10 08:46:42;;;;;;;9.23;5.13;;;-0.30;99.90;;;;;;5015179;28;1163652;-77
2021/12/10 08:49:08;;;;;;;10.63;4.70;;;-0.30;99.90;;;;;;5046451;28;20028;-78
2021/12/10 08:51:41;;;;;;;6.63;4.38;;;-0.30;99.90;;;;;;5046204;28;20053;-78
2021/12/10 08:54:10;;;;;;;11.50;4.05;;;-0.60;99.90;;;;;;5064994;28;20029;-77
2021/12/10 08:56:37;;;;;;;8.98;4.32;;;-0.70;99.90;;;;;;5065869;28;20041;-78
2021/12/10 08:59:06;;;;;;;11.48;6.53;;;-0.50;99.90;;;;;;5065919;28;20116;-77
2021/12/10 09:01:36;;;;;;;12.65;6.93;;;-0.50;99.90;;;;;;5066114;28;20099;-77
2021/12/10 09:04:07;;;;;;;8.48;3.80;;;-0.40;99.90;;;;;;5064127;28;20039;-77
2021/12/10 09:06:35;;;;;;;6.68;3.58;;;-0.40;99.90;;;;;;5064879;28;20036;-77
2021/12/10 09:09:03;;;;;;;7.10;3.22;;;-0.30;99.90;;;;;;5027436;28;20033;-78
2021/12/10 09:11:29;;;;;;;11.85;6.45;;;-0.20;99.90;;;;;;5045470;28;20032;-77
2021/12/10 09:13:55;;;;;;;9.90;5.28;;;-0.20;99.90;;;;;;5045507;28;20108;-77
2021/12/10 09:16:26;;;;;;;6.80;3.42;;;0.00;99.90;;;;;;5044808;28;20454;-78
2021/12/10 09:18:57;;;;;;;4.57;1.90;;;-0.20;99.90;;;;;;5060575;28;20024;-77
2021/12/10 09:21:24;;;;;;;3.88;1.80;;;-0.40;99.30;;;;;;5065239;28;20024;-77
2021/12/10 09:23:53;;;;;;;3.70;1.90;;;-0.20;99.20;;;;;;5065229;28;20032;-77
2021/12/10 09:26:19;;;;;;;4.25;2.17;;;-0.30;99.20;;;;;;5065371;28;20017;-77
2021/12/10 09:28:47;;;;;;;4.10;2.07;;;-0.40;99.10;;;;;;5053364;28;20048;-77
2021/12/10 09:31:14;;;;;;;3.45;1.40;;;-0.40;98.80;;;;;;5045272;28;20116;-77
2021/12/10 09:33:42;;;;;;;3.42;1.70;;;-0.40;98.50;;;;;;5045291;28;20013;-77
2021/12/10 09:36:08;;;;;;;3.50;1.20;;;-0.30;98.90;;;;;;5060930;28;20059;-78
2021/12/10 09:38:35;;;;;;;3.25;1.45;;;-0.20;98.40;;;;;;5063411;28;20494;-77
2021/12/10 09:41:05;;;;;;;3.95;1.98;;;0.00;98.30;;;;;;5063133;28;20575;-77
2021/12/10 09:43:33;;;;;;;5.43;2.10;;;0.00;98.10;;;;;;5063305;28;20110;-77
2021/12/10 09:46:00;;;;;;;3.20;1.45;;;0.00;98.10;;;;;;5062677;28;20098;-77
2021/12/10 09:48:26;;;;;;;7.10;3.13;;;0.00;97.60;;;;;;5062038;28;20031;-77
2021/12/10 09:51:12;;;;;;;5.70;2.00;;;0.10;97.80;;;;;;5062820;28;20039;-78
2021/12/10 09:53:41;;;;;;;2.90;1.42;;;0.10;98.00;;;;;;5064265;28;20024;-77
2021/12/10 09:56:08;;;;;;;3.47;1.40;;;-0.20;97.90;;;;;;5064705;28;20085;-77
2021/12/10 09:58:34;;;;;;;5.15;2.10;;;-0.30;97.80;;;;;;5063316;28;20036;-77
2021/12/10 10:01:07;;;;;;;4.25;1.80;;;-0.40;97.90;;;;;;5044432;28;20035;-78
2021/12/10 10:03:37;;;;;;;3.97;1.67;;;-0.20;98.00;;;;;;5044453;28;20055;-76
2021/12/10 10:06:04;;;;;;;4.75;2.10;;;-0.10;97.90;;;;;;5044554;28;20051;-77
2021/12/10 10:08:32;;;;;;;5.60;2.25;;;0.60;99.90;;;;;;5044384;28;20068;-76
2021/12/10 10:11:04;;;;;;;4.75;2.65;;;0.60;97.80;;;;;;5060241;28;20024;-76
2021/12/10 10:13:36;;;;;;;16.52;6.78;;;0.60;97.30;;;;;;5064719;28;20401;-77
2021/12/10 10:16:02;;;;;;;23.20;12.40;;;0.60;97.60;;;;;;5064526;28;20043;-77
2021/12/10 10:18:33;;;;;;;40.72;23.25;;;0.60;97.70;;;;;;5064403;28;20453;-77
2021/12/10 10:21:05;;;;;;;10.50;6.00;;;0.70;97.80;;;;;;5062766;28;20108;-77
2021/12/10 10:23:31;;;;;;;35.85;21.33;;;0.70;97.80;;;;;;5064553;28;20013;-77
2021/12/10 10:26:01;;;;;;;17.33;7.65;;;0.80;98.20;;;;;;5064248;28;20035;-77
2021/12/10 10:28:27;;;;;;;12.25;6.53;;;0.90;97.70;;;;;;5064917;28;20028;-77
2021/12/10 10:31:01;;;;;;;17.10;5.40;;;0.90;97.40;;;;;;5054085;28;20045;-77
2021/12/10 10:33:32;;;;;;;9.20;4.40;;;0.90;97.50;;;;;;5043797;28;20083;-76
2021/12/10 10:36:01;;;;;;;10.25;3.88;;;0.90;97.50;;;;;;5051044;28;20036;-76
2021/12/10 10:38:28;;;;;;;9.50;4.43;;;0.90;97.10;;;;;;5059629;28;20544;-77
2021/12/10 10:41:08;;;;;;;8.48;3.03;;;0.80;97.00;;;;;;5062257;28;20601;-77
2021/12/10 10:43:34;;;;;;;5.25;2.63;;;0.70;97.10;;;;;;5063467;28;20486;-76
2021/12/10 10:46:00;;;;;;;4.70;1.92;;;0.50;97.40;;;;;;5063398;28;20055;-77
2021/12/10 10:48:27;;;;;;;4.78;2.10;;;0.60;97.30;;;;;;5053503;28;20375;-77
2021/12/10 10:51:01;;;;;;;5.72;2.28;;;0.60;96.80;;;;;;5044064;28;20029;-76
2021/12/10 10:53:32;;;;;;;5.32;2.25;;;0.60;96.80;;;;;;5059271;28;20645;-77
2021/12/10 10:56:06;;;;;;;5.38;2.50;;;0.60;97.10;;;;;;5063967;28;20052;-77
2021/12/10 10:58:39;;;;;;;6.60;2.30;;;0.60;97.30;;;;;;5064288;28;20742;-77
2021/12/10 11:01:25;;;;;;;4.93;2.22;;;0.60;97.30;;;;;;5064336;28;20107;-77
2021/12/10 11:04:15;;;;;;;10.07;3.70;;;0.80;97.40;;;;;;5048210;28;20032;-77
2021/12/10 11:06:46;;;;;;;6.15;3.22;;;0.80;97.10;;;;;;5044031;28;20017;-77
2021/12/10 11:09:22;;;;;;;7.78;3.85;;;0.80;97.60;;;;;;5044013;28;20539;-77
2021/12/10 11:11:50;;;;;;;7.03;1.95;;;1.00;97.90;;;;;;5043870;28;20025;-77
2021/12/10 11:14:24;;;;;;;4.28;2.20;;;1.00;97.60;;;;;;5059377;28;20029;-76
2021/12/10 11:16:54;;;;;;;5.00;2.17;;;0.80;97.20;;;;;;5050511;28;20037;-77
2021/12/10 11:19:23;;;;;;;4.68;2.30;;;0.70;97.10;;;;;;5045815;28;20024;-77
2021/12/10 11:21:59;;;;;;;8.90;4.85;;;0.80;96.40;;;;;;5063861;28;20498;-77
2021/12/10 11:24:31;;;;;;;5.25;2.60;;;1.00;97.20;;;;;;5065500;28;20037;-77
2021/12/10 11:27:04;;;;;;;16.42;9.85;;;1.00;97.00;;;;;;5066684;28;20400;-77
2021/12/10 11:29:41;;;;;;;14.55;8.45;;;1.20;97.20;;;;;;5066424;28;20023;-76
2021/12/10 11:32:14;;;;;;;5.40;2.80;;;1.30;96.70;;;;;;5046939;28;20048;-77
2021/12/10 11:34:43;;;;;;;5.70;1.98;;;1.20;96.70;;;;;;5054224;28;20881;-77
2021/12/10 11:37:10;;;;;;;3.15;1.70;;;1.10;96.30;;;;;;5064342;28;20061;-77
2021/12/10 11:39:51;;;;;;;3.25;1.50;;;1.00;95.80;;;;;;5067810;28;20031;-77
2021/12/10 11:42:42;;;;;;;9.02;1.77;;;0.90;96.10;;;;;;5057171;28;20107;-77
2021/12/10 11:45:40;;;;;;;5.55;2.60;;;0.90;96.00;;;;;;5048306;28;20823;-77
2021/12/10 11:48:11;;;;;;;5.70;3.50;;;0.90;96.20;;;;;;5045760;28;20618;-77
2021/12/10 11:50:56;;;;;;;5.13;2.88;;;1.00;96.60;;;;;;5045677;28;20107;-77
2021/12/10 11:53:22;;;;;;;3.53;1.45;;;1.10;96.70;;;;;;5048488;28;20542;-76
2021/12/10 11:56:04;;;;;;;3.65;1.88;;;1.00;95.90;;;;;;5048741;28;20104;-76
2021/12/10 11:58:30;;;;;;;10.52;6.05;;;1.10;96.40;;;;;;5047840;28;20411;-76
2021/12/10 12:00:56;;;;;;;6.95;3.00;;;1.20;96.90;;;;;;5049804;28;20032;-76
2021/12/10 12:03:30;;;;;;;5.68;2.70;;;1.30;96.80;;;;;;5050476;28;20025;-76
2021/12/10 12:05:57;;;;;;;6.93;3.22;;;1.40;96.80;;;;;;5069954;28;20378;-77
2021/12/10 12:08:24;;;;;;;8.32;5.07;;;1.40;96.40;;;;;;5065806;28;20029;-77
2021/12/10 12:10:58;;;;;;;9.60;5.25;;;1.10;96.60;;;;;;5070072;28;20025;-77
2021/12/10 12:13:35;;;;;;;6.55;3.60;;;1.10;97.00;;;;;;5070178;28;20504;-76
2021/12/10 12:16:03;;;;;;;5.93;2.80;;;1.20;96.80;;;;;;5069881;28;20032;-76
2021/12/10 12:18:38;;;;;;;6.85;2.95;;;1.20;96.90;;;;;;5068109;28;20103;-76
2021/12/10 12:27:09;;;;;;;4.55;2.00;;;1.30;96.00;;;;;;5049710;28;20110;-77
2021/12/10 12:29:39;;;;;;;44.85;20.33;;;1.30;95.70;;;;;;5056594;28;20554;-77
2021/12/10 12:32:33;;;;;;;13.38;5.97;;;1.40;96.10;;;;;;5060997;28;20025;-77
2021/12/10 12:35:21;;;;;;;81.63;38.58;;;1.30;96.50;;;;;;5050724;28;20041;-77
2021/12/10 12:37:47;;;;;;;11.50;6.43;;;1.30;97.10;;;;;;5057684;28;20072;-76
2021/12/10 12:40:13;;;;;;;56.85;30.17;;;1.30;96.90;;;;;;5067666;28;20048;-77
2021/12/10 12:42:45;;;;;;;131.35;65.68;;;1.30;97.00;;;;;;5067642;28;20070;-76
2021/12/10 12:45:19;;;;;;;495.77;253.30;;;1.40;96.60;;;;;;5053225;28;20099;-77
2021/12/10 12:47:49;;;;;;;175.75;81.88;;;1.40;96.40;;;;;;5060587;28;20028;-77
2021/12/10 12:50:30;;;;;;;24.42;13.30;;;1.30;96.20;;;;;;5066285;28;20024;-77
2021/12/10 12:53:00;;;;;;;16.58;8.25;;;1.30;96.00;;;;;;5067052;28;20544;-78
2021/12/10 12:55:44;;;;;;;9.18;4.85;;;1.60;96.60;;;;;;5067717;28;20043;-79
2021/12/10 12:58:10;;;;;;;6.88;3.50;;;1.40;96.30;;;;;;5055883;28;20044;-79
2021/12/10 13:00:49;;;;;;;58.45;32.35;;;1.40;96.70;;;;;;5049404;28;20467;-77
2021/12/10 13:03:31;;;;;;;105.13;50.17;;;1.50;96.90;;;;;;5049365;28;20376;-78
2021/12/10 13:05:59;;;;;;;22.40;12.93;;;1.60;97.30;;;;;;5047793;28;20059;-80
2021/12/10 13:08:31;;;;;;;29.58;16.60;;;1.60;96.70;;;;;;5057191;28;20036;-80
2021/12/10 13:11:19;;;;;;;50.63;19.85;;;1.60;97.20;;;;;;5060765;28;20012;-80
2021/12/10 13:14:04;;;;;;;32.80;14.55;;;1.60;97.10;;;;;;5046042;28;20492;-79
2021/12/10 13:16:33;;;;;;;75.28;30.35;;;1.50;96.80;;;;;;5046217;28;20535;-79